Hauptseite
METAR-TAF:

METAR-TAF

Flughäfen :

Satu Mare, Rumänien

Breite: 47-48N, Länge: 022-53E, Höhe: 123 m

Beobachtung

Neuester Wetterbericht von vor 17 Minuten, um 05:30 UTC
Wind 2 kt aus Süd/Südwest
Temperatur 6°C
Luftfeuchtigkeit 87%
Luftdruck 1019 hPa
Sichtweite 10 km oder mehr
keine Wolken unter 1500 m und keine Kumulonimbus oder Gewitterwolken

METAR: LRSM 180530Z 20002KT CAVOK 06/04 Q1019

Zeit: 08:47 (05:47 UTC)

Prognose

Neuester Wetterbericht von vor 47 Minuten, um 05:00 UTC
Gültige Prognose vom 18 um 06 UTC bis 18 um 15 UTC
Wind 4 kt aus unterschiedlichen Richtungen
Sichtweite 10 km oder mehr
keine Wolken unter 1500 m und keine Kumulonimbus oder Gewitterwolken

TAF: LRSM 180500Z 1806/1815 VRB04KT CAVOK

Wetterbeobachtungen und Prognosen von mehr als 4000 Flughäfen (METAR und TAF Bericht).

Die verfügbaren Stationen werden durch gelbe und rote Markierungen auf der Karte dargestellt.

Führen Sie die Maus auf sie, um den Namen der Station zu sehen.

Darauf klicken, um die Beobachtung von Wetterbeobachtungen und Prognosen zu sehen.

Um die Karte zu ändern : klicken Sie auf den grünen Tasten mit einem schwarzen Kreuz Zum Vergrößern, auf den grünen Button mit einem Gedankenstrich zu verkleinern, oder auf die grünen Pfeile für benachbarte Karten.


METAR-TAF: